createdAt,value
2023-03-03T00:02:07.258Z,6.24
2023-03-03T00:04:35.283Z,6.27
2023-03-03T00:07:03.526Z,6.29
2023-03-03T00:09:31.437Z,6.25
2023-03-03T00:12:00.176Z,6.33
2023-03-03T00:14:32.619Z,6.35
2023-03-03T00:17:02.500Z,6.38
2023-03-03T00:19:30.818Z,6.38
2023-03-03T00:21:59.374Z,6.39
2023-03-03T00:24:37.873Z,6.38
2023-03-03T00:27:32.339Z,6.38
2023-03-03T00:30:01.286Z,6.32
2023-03-03T00:32:51.321Z,6.32
2023-03-03T00:35:28.240Z,6.29
2023-03-03T00:38:11.479Z,6.25
2023-03-03T00:40:39.914Z,6.20
2023-03-03T00:43:35.527Z,6.19
2023-03-03T00:46:03.725Z,6.15
2023-03-03T00:48:37.879Z,6.16
2023-03-03T00:51:38.264Z,6.17
2023-03-03T00:54:06.275Z,6.14
2023-03-03T00:56:34.744Z,6.14
2023-03-03T00:59:03.117Z,6.13
2023-03-03T01:01:31.206Z,6.10
2023-03-03T01:03:59.491Z,6.14
2023-03-03T01:06:28.418Z,6.14
2023-03-03T01:08:58.177Z,6.12
2023-03-03T01:11:26.952Z,6.08
2023-03-03T01:13:55.684Z,6.04
2023-03-03T01:16:24.168Z,6.05
2023-03-03T01:18:52.439Z,6.05
2023-03-03T01:21:20.394Z,6.12
2023-03-03T01:23:48.811Z,6.18
2023-03-03T01:26:16.944Z,6.23
2023-03-03T01:28:45.128Z,6.25
2023-03-03T01:31:14.090Z,6.32
2023-03-03T01:33:42.576Z,6.30
2023-03-03T01:36:10.515Z,6.34
2023-03-03T01:38:38.518Z,6.36
2023-03-03T01:41:07.211Z,6.37
2023-03-03T01:43:35.044Z,6.36
2023-03-03T01:46:03.346Z,6.39
2023-03-03T01:48:44.050Z,6.39
2023-03-03T01:51:22.036Z,6.36
2023-03-03T01:53:58.494Z,6.40
2023-03-03T01:56:27.350Z,6.44
2023-03-03T01:59:02.716Z,6.54
2023-03-03T02:01:31.413Z,6.64
2023-03-03T02:04:00.113Z,6.77
2023-03-03T02:06:31.572Z,6.87
2023-03-03T02:09:30.359Z,7.02
2023-03-03T02:12:01.336Z,7.14
2023-03-03T02:14:29.234Z,7.21
2023-03-03T02:16:57.207Z,7.38
2023-03-03T02:19:36.632Z,7.56
2023-03-03T02:22:04.749Z,7.65
2023-03-03T02:24:54.441Z,7.76
2023-03-03T02:27:22.350Z,7.79
2023-03-03T02:29:50.448Z,7.91
2023-03-03T02:32:18.657Z,8.10
2023-03-03T02:34:51.894Z,8.37
2023-03-03T02:37:20.648Z,8.56
2023-03-03T02:39:48.497Z,8.67
2023-03-03T02:42:18.364Z,8.79
2023-03-03T02:44:51.309Z,8.83
2023-03-03T02:47:19.280Z,8.91
2023-03-03T02:49:47.072Z,8.99
2023-03-03T02:52:15.583Z,9.11
2023-03-03T02:54:46.337Z,9.10
2023-03-03T02:57:14.426Z,9.27
2023-03-03T02:59:42.904Z,9.43
2023-03-03T03:02:17.384Z,9.56
2023-03-03T03:04:46.393Z,9.64
2023-03-03T03:07:18.609Z,9.73
2023-03-03T03:09:47.577Z,9.80
2023-03-03T03:12:16.412Z,9.93
2023-03-03T03:14:44.820Z,9.99
2023-03-03T03:17:13.204Z,10.08
2023-03-03T03:19:41.896Z,10.16
2023-03-03T03:22:09.771Z,10.25
2023-03-03T03:24:37.932Z,10.40
2023-03-03T03:27:09.284Z,10.49
2023-03-03T03:29:37.736Z,10.57
2023-03-03T03:32:06.836Z,10.60
2023-03-03T03:34:35.539Z,10.57
2023-03-03T03:37:04.834Z,10.59
2023-03-03T03:39:32.923Z,10.62
2023-03-03T03:42:00.859Z,10.60
2023-03-03T03:44:29.065Z,10.60
2023-03-03T03:46:57.289Z,10.73
2023-03-03T03:49:25.910Z,10.77
2023-03-03T03:51:56.308Z,10.78
2023-03-03T03:54:27.869Z,10.75
2023-03-03T03:56:56.096Z,10.60
2023-03-03T03:59:25.003Z,10.50
2023-03-03T04:01:53.421Z,10.44
2023-03-03T04:04:23.302Z,10.32
2023-03-03T04:06:51.394Z,10.20
2023-03-03T04:09:22.935Z,10.26
2023-03-03T04:11:51.161Z,10.46
2023-03-03T04:14:19.926Z,10.91
2023-03-03T04:16:47.920Z,11.13
2023-03-03T04:19:15.666Z,11.20
2023-03-03T04:21:44.611Z,11.35
2023-03-03T04:24:12.581Z,11.37
2023-03-03T04:26:41.087Z,11.30
2023-03-03T04:29:11.013Z,11.28
2023-03-03T04:31:41.160Z,11.28
2023-03-03T04:34:10.875Z,11.47
2023-03-03T04:36:39.567Z,11.57
2023-03-03T04:39:07.735Z,11.72
2023-03-03T04:41:36.115Z,11.75
2023-03-03T04:44:04.874Z,11.80
2023-03-03T04:46:32.860Z,11.75
2023-03-03T04:49:02.036Z,11.71
2023-03-03T04:51:30.232Z,11.69
2023-03-03T04:53:58.507Z,11.68
2023-03-03T04:56:26.834Z,11.63
2023-03-03T04:58:55.191Z,11.60
2023-03-03T05:01:23.623Z,11.61
2023-03-03T05:03:51.448Z,11.64
2023-03-03T05:06:19.850Z,11.67
2023-03-03T05:08:47.673Z,11.84
2023-03-03T05:11:15.930Z,11.85
2023-03-03T05:13:43.849Z,11.89
2023-03-03T05:16:11.835Z,11.95
2023-03-03T05:18:39.968Z,12.06
2023-03-03T05:21:08.012Z,12.08
2023-03-03T05:23:36.636Z,12.16
2023-03-03T05:26:04.816Z,12.23
2023-03-03T05:28:33.913Z,12.25
2023-03-03T05:31:02.025Z,12.29
2023-03-03T05:33:30.607Z,12.38
2023-03-03T05:35:58.692Z,12.51
2023-03-03T05:38:26.981Z,12.59
2023-03-03T05:40:55.675Z,12.56
2023-03-03T05:43:23.459Z,12.66
2023-03-03T05:46:00.761Z,12.85
2023-03-03T05:48:29.068Z,12.86
2023-03-03T05:51:00.619Z,12.94
2023-03-03T05:53:28.986Z,12.89
2023-03-03T05:55:57.044Z,12.95
2023-03-03T05:58:25.394Z,12.97
2023-03-03T06:00:53.430Z,13.09
2023-03-03T06:03:21.545Z,13.24
2023-03-03T06:05:49.658Z,13.34
2023-03-03T06:08:17.866Z,13.46
2023-03-03T06:10:45.794Z,13.56
2023-03-03T06:13:15.712Z,13.70
2023-03-03T06:15:43.764Z,13.78
2023-03-03T06:18:12.175Z,13.85
2023-03-03T06:20:40.080Z,13.92
2023-03-03T06:23:08.658Z,14.01
2023-03-03T06:25:37.000Z,14.07
2023-03-03T06:28:05.149Z,14.08
2023-03-03T06:30:33.000Z,14.15
2023-03-03T06:33:01.250Z,14.28
2023-03-03T06:35:29.424Z,14.41
2023-03-03T06:37:57.571Z,14.47
2023-03-03T06:40:25.265Z,14.53
2023-03-03T06:42:53.457Z,14.59
2023-03-03T06:45:21.788Z,14.61
2023-03-03T06:47:51.574Z,14.62
2023-03-03T06:50:20.305Z,14.62
2023-03-03T06:52:48.867Z,14.28
2023-03-03T06:55:22.140Z,13.95
2023-03-03T06:57:50.038Z,13.75
2023-03-03T07:00:25.077Z,13.65
2023-03-03T07:03:15.018Z,13.60
2023-03-03T07:05:43.007Z,13.58
2023-03-03T07:08:19.184Z,13.49
2023-03-03T07:10:47.378Z,13.41
2023-03-03T07:13:26.085Z,13.45
2023-03-03T07:15:55.201Z,13.69
2023-03-03T07:18:53.558Z,13.72
2023-03-03T07:21:35.856Z,13.67
2023-03-03T07:24:28.418Z,13.41
2023-03-03T07:27:24.928Z,13.35
2023-03-03T07:29:54.580Z,13.35
2023-03-03T07:32:47.657Z,13.25
2023-03-03T07:35:38.263Z,13.05
2023-03-03T07:38:31.068Z,12.92
2023-03-03T07:41:01.421Z,12.81
2023-03-03T07:43:38.590Z,12.72
2023-03-03T07:46:10.571Z,12.68
2023-03-03T07:48:40.634Z,12.57
2023-03-03T07:51:42.341Z,12.53
2023-03-03T07:54:36.171Z,12.53
2023-03-03T07:57:15.823Z,12.57
2023-03-03T07:59:54.962Z,12.55
2023-03-03T08:02:29.044Z,12.54
2023-03-03T08:04:57.451Z,12.52
2023-03-03T08:07:25.537Z,12.54
2023-03-03T08:10:01.090Z,12.63
2023-03-03T08:12:42.368Z,12.73
2023-03-03T08:15:22.383Z,12.69
2023-03-03T08:17:51.120Z,12.59
2023-03-03T08:20:37.603Z,12.63
2023-03-03T08:23:05.749Z,12.66
2023-03-03T08:25:33.531Z,12.72
2023-03-03T08:28:01.577Z,12.81
2023-03-03T08:30:29.451Z,12.94
2023-03-03T08:32:57.587Z,13.02
2023-03-03T08:35:25.426Z,13.12
2023-03-03T08:37:53.490Z,13.23
2023-03-03T08:40:21.536Z,13.35
2023-03-03T08:42:49.608Z,13.44
2023-03-03T08:45:18.309Z,13.56
2023-03-03T08:47:46.448Z,13.63
2023-03-03T08:50:15.378Z,13.71
2023-03-03T08:52:43.387Z,13.77
2023-03-03T08:55:12.029Z,13.84
2023-03-03T08:57:40.142Z,13.86
2023-03-03T09:00:10.318Z,13.79
2023-03-03T09:02:38.468Z,13.76
2023-03-03T09:05:07.334Z,13.74
2023-03-03T09:07:35.191Z,13.76
2023-03-03T09:10:03.416Z,13.71
2023-03-03T09:12:37.097Z,13.74
2023-03-03T09:15:35.026Z,13.68
2023-03-03T09:18:23.864Z,13.63
2023-03-03T09:20:53.056Z,13.55
2023-03-03T09:23:39.621Z,13.54
2023-03-03T09:26:32.605Z,13.58
2023-03-03T09:29:16.254Z,13.58
2023-03-03T09:31:49.395Z,13.58
2023-03-03T09:34:20.961Z,13.58
2023-03-03T09:36:50.018Z,13.43
2023-03-03T09:39:28.466Z,13.21
2023-03-03T09:42:12.421Z,13.05
2023-03-03T09:45:02.318Z,12.93
2023-03-03T09:47:58.418Z,12.81
2023-03-03T09:50:29.389Z,12.72
2023-03-03T09:53:07.730Z,12.57
2023-03-03T09:55:40.952Z,12.45
2023-03-03T09:58:24.896Z,12.47
2023-03-03T10:00:56.132Z,12.53
2023-03-03T10:03:48.484Z,12.50
2023-03-03T10:06:34.134Z,12.42
2023-03-03T10:09:20.894Z,12.52
2023-03-03T10:12:14.977Z,12.65
2023-03-03T10:15:14.582Z,12.71
2023-03-03T10:17:49.553Z,12.77
2023-03-03T10:20:40.408Z,12.77
2023-03-03T10:23:53.741Z,12.80
2023-03-03T10:27:01.341Z,12.81
2023-03-03T10:29:45.221Z,12.65
2023-03-03T10:33:10.026Z,12.73
2023-03-03T10:36:07.128Z,12.60
2023-03-03T10:39:26.404Z,12.55
2023-03-03T10:42:15.788Z,12.54
2023-03-03T10:44:43.977Z,12.60
2023-03-03T10:47:36.229Z,12.67
2023-03-03T10:50:11.289Z,12.68
2023-03-03T10:52:59.067Z,12.63
2023-03-03T10:55:39.650Z,12.57
2023-03-03T10:58:27.603Z,12.32
2023-03-03T11:01:02.547Z,12.25
2023-03-03T11:03:37.176Z,12.04
2023-03-03T11:06:23.164Z,11.76
2023-03-03T11:09:04.112Z,11.61
2023-03-03T11:11:46.779Z,11.54
2023-03-03T11:14:17.273Z,11.32
2023-03-03T11:16:59.769Z,11.23
2023-03-03T11:19:42.005Z,11.09
2023-03-03T11:22:12.749Z,10.93
2023-03-03T11:25:02.374Z,10.74
2023-03-03T11:27:56.650Z,10.60
2023-03-03T11:30:30.564Z,10.51
2023-03-03T11:33:13.251Z,10.46
2023-03-03T11:35:50.346Z,10.44
2023-03-03T11:38:39.781Z,10.40
2023-03-03T11:41:13.816Z,10.36
2023-03-03T11:43:50.634Z,10.33
2023-03-03T11:46:47.808Z,10.31
2023-03-03T11:49:23.001Z,10.30
2023-03-03T11:51:53.716Z,10.31
2023-03-03T11:54:54.158Z,10.34
2023-03-03T11:57:23.881Z,10.30
2023-03-03T12:00:09.912Z,10.31
2023-03-03T12:02:59.414Z,10.24
2023-03-03T12:05:48.196Z,10.24
2023-03-03T12:08:34.585Z,10.20
2023-03-03T12:11:28.478Z,10.19
2023-03-03T12:14:38.285Z,10.17
2023-03-03T12:17:18.352Z,10.11
2023-03-03T12:20:17.891Z,10.05
2023-03-03T12:23:06.938Z,9.95
2023-03-03T12:25:44.237Z,9.90
2023-03-03T12:28:29.122Z,9.82
2023-03-03T12:31:24.503Z,9.84
2023-03-03T12:33:54.310Z,9.82
2023-03-03T12:36:32.650Z,9.80
2023-03-03T12:39:13.551Z,9.84
2023-03-03T12:41:56.933Z,9.79
2023-03-03T12:44:26.781Z,9.84
2023-03-03T12:47:02.364Z,9.84
2023-03-03T12:49:48.072Z,9.84
2023-03-03T12:52:46.885Z,9.80
2023-03-03T12:55:35.834Z,9.74
2023-03-03T12:58:04.089Z,9.72
2023-03-03T13:00:40.613Z,9.66
2023-03-03T13:03:55.790Z,9.67
2023-03-03T13:06:31.303Z,9.64
2023-03-03T13:09:36.657Z,9.60
2023-03-03T13:12:23.460Z,9.59
2023-03-03T13:15:00.862Z,9.58
2023-03-03T13:17:33.212Z,9.56
2023-03-03T13:20:03.632Z,9.56
2023-03-03T13:22:46.271Z,9.55
2023-03-03T13:25:34.546Z,9.57
2023-03-03T13:28:13.266Z,9.52
2023-03-03T13:30:55.375Z,9.48
2023-03-03T13:33:34.888Z,9.45
2023-03-03T13:36:12.641Z,9.44
2023-03-03T13:38:50.467Z,9.41
2023-03-03T13:41:51.312Z,9.35
2023-03-03T13:44:28.684Z,9.33
2023-03-03T13:47:02.442Z,9.32
2023-03-03T13:49:52.614Z,9.27
2023-03-03T13:52:25.250Z,9.19
2023-03-03T13:55:31.781Z,9.12
2023-03-03T13:58:12.706Z,8.99
2023-03-03T14:00:59.956Z,8.94
2023-03-03T14:03:52.826Z,8.86
2023-03-03T14:06:23.820Z,8.72
2023-03-03T14:09:03.688Z,8.59
2023-03-03T14:11:50.379Z,8.43
2023-03-03T14:14:25.068Z,8.33
2023-03-03T14:16:53.655Z,8.29
2023-03-03T14:19:40.828Z,8.15
2023-03-03T14:22:24.366Z,8.13
2023-03-03T14:25:09.235Z,8.05
2023-03-03T14:28:05.764Z,7.99
2023-03-03T14:30:37.872Z,7.92
2023-03-03T14:33:08.740Z,7.86
2023-03-03T14:35:41.793Z,7.85
2023-03-03T14:38:09.780Z,7.90
2023-03-03T14:40:44.834Z,7.80
2023-03-03T14:43:27.943Z,7.76
2023-03-03T14:45:56.864Z,7.77
2023-03-03T14:48:26.720Z,7.73
2023-03-03T14:50:59.111Z,7.68
2023-03-03T14:53:40.193Z,7.64
2023-03-03T14:56:23.005Z,7.62
2023-03-03T14:58:54.957Z,7.51
2023-03-03T15:01:35.540Z,7.60
2023-03-03T15:04:16.072Z,7.68
2023-03-03T15:06:49.111Z,7.73
2023-03-03T15:09:43.724Z,7.82
2023-03-03T15:12:37.604Z,7.87
2023-03-03T15:15:14.707Z,7.88
2023-03-03T15:17:50.555Z,7.85
2023-03-03T15:20:41.404Z,7.82
2023-03-03T15:23:32.035Z,7.79
2023-03-03T15:26:05.447Z,7.77
2023-03-03T15:29:03.056Z,7.74
2023-03-03T15:31:49.961Z,7.78
2023-03-03T15:34:33.473Z,7.81
2023-03-03T15:37:10.525Z,7.80
2023-03-03T15:40:03.299Z,7.77
2023-03-03T15:42:38.592Z,7.64
2023-03-03T15:45:34.156Z,7.63
2023-03-03T15:48:20.451Z,7.57
2023-03-03T15:51:07.227Z,7.51
2023-03-03T15:53:58.605Z,7.46
2023-03-03T15:56:35.591Z,7.39
2023-03-03T15:59:37.874Z,7.43
2023-03-03T16:02:22.772Z,7.35
2023-03-03T16:05:15.989Z,7.28
2023-03-03T16:07:53.640Z,7.13
2023-03-03T16:10:37.672Z,7.12
2023-03-03T16:13:28.885Z,7.05
2023-03-03T16:16:18.661Z,6.98
2023-03-03T16:19:08.309Z,7.06
2023-03-03T16:21:54.801Z,7.07
2023-03-03T16:24:47.918Z,7.01
2023-03-03T16:27:31.301Z,7.04
2023-03-03T16:30:23.663Z,7.00
2023-03-03T16:32:53.694Z,6.94
2023-03-03T16:35:26.790Z,6.90
2023-03-03T16:37:57.397Z,7.01
2023-03-03T16:40:58.808Z,7.11
2023-03-03T16:43:44.890Z,7.17
2023-03-03T16:46:36.607Z,7.20
2023-03-03T16:49:22.464Z,7.18
2023-03-03T16:51:54.219Z,7.09
2023-03-03T16:54:37.426Z,7.13
2023-03-03T16:57:34.234Z,7.08
2023-03-03T17:00:22.291Z,7.01
2023-03-03T17:02:52.977Z,6.93
2023-03-03T17:06:01.067Z,6.94
2023-03-03T17:09:06.583Z,6.84
2023-03-03T17:11:38.108Z,6.68
2023-03-03T17:14:25.284Z,6.67
2023-03-03T17:16:57.916Z,6.69
2023-03-03T17:19:38.415Z,6.62
2023-03-03T17:22:41.095Z,6.53
2023-03-03T17:25:12.885Z,6.43
2023-03-03T17:27:59.809Z,6.44
2023-03-03T17:30:51.262Z,6.49
2023-03-03T17:33:28.324Z,6.49
2023-03-03T17:36:18.434Z,6.47
2023-03-03T17:38:46.328Z,6.44
2023-03-03T17:41:32.882Z,6.44
2023-03-03T17:44:14.650Z,6.41
2023-03-03T17:46:51.975Z,6.42
2023-03-03T17:49:43.334Z,6.42
2023-03-03T17:52:11.200Z,6.44
2023-03-03T17:54:59.582Z,6.51
2023-03-03T17:57:58.960Z,6.56
2023-03-03T18:00:52.698Z,6.61
2023-03-03T18:03:38.973Z,6.61
2023-03-03T18:06:29.784Z,6.60
2023-03-03T18:09:35.609Z,6.48
2023-03-03T18:12:10.934Z,6.29
2023-03-03T18:15:00.452Z,6.13
2023-03-03T18:17:31.524Z,6.00
2023-03-03T18:20:11.370Z,5.89
2023-03-03T18:22:46.677Z,5.76
2023-03-03T18:25:16.331Z,5.62
2023-03-03T18:27:49.062Z,5.51
2023-03-03T18:30:22.665Z,5.44
2023-03-03T18:32:56.706Z,5.36
2023-03-03T18:35:49.656Z,5.30
2023-03-03T18:38:25.905Z,5.22
2023-03-03T18:41:12.978Z,5.15
2023-03-03T18:43:44.515Z,5.10
2023-03-03T18:46:22.029Z,5.08
2023-03-03T18:48:55.222Z,5.01
2023-03-03T18:51:36.236Z,5.00
2023-03-03T18:54:13.151Z,4.99
2023-03-03T18:57:05.770Z,5.03
2023-03-03T18:59:37.004Z,5.08
2023-03-03T19:02:14.192Z,5.17
2023-03-03T19:04:55.975Z,5.32
2023-03-03T19:07:28.503Z,5.45
2023-03-03T19:10:04.486Z,5.51
2023-03-03T19:12:46.981Z,5.75
2023-03-03T19:15:35.274Z,6.00
2023-03-03T19:18:14.856Z,6.21
2023-03-03T19:20:45.122Z,6.41
2023-03-03T19:23:17.336Z,6.58
2023-03-03T19:25:45.242Z,6.78
2023-03-03T19:28:16.093Z,6.93
2023-03-03T19:30:59.574Z,7.04
2023-03-03T19:33:43.835Z,7.10
2023-03-03T19:36:26.153Z,7.13
2023-03-03T19:39:09.354Z,7.17
2023-03-03T19:41:59.879Z,7.16
2023-03-03T19:45:01.253Z,7.13
2023-03-03T19:47:37.313Z,7.08
2023-03-03T19:50:23.636Z,7.13
2023-03-03T19:53:00.680Z,7.11
2023-03-03T19:55:36.229Z,7.06
2023-03-03T19:58:35.089Z,7.07
2023-03-03T20:01:54.291Z,7.00
2023-03-03T20:04:38.634Z,6.92
2023-03-03T20:07:16.584Z,6.86
2023-03-03T20:09:53.985Z,6.85
2023-03-03T20:12:40.342Z,6.80
2023-03-03T20:15:14.402Z,6.69
2023-03-03T20:18:11.590Z,6.65
2023-03-03T20:20:51.639Z,6.58
2023-03-03T20:24:21.058Z,6.56
2023-03-03T20:26:57.512Z,6.51
2023-03-03T20:29:53.846Z,6.39
2023-03-03T20:32:35.919Z,6.39
2023-03-03T20:35:21.528Z,6.36
2023-03-03T20:38:15.133Z,6.30
2023-03-03T20:40:51.551Z,6.20
2023-03-03T20:43:34.450Z,6.12
2023-03-03T20:46:08.710Z,6.03
2023-03-03T20:48:59.818Z,6.01
2023-03-03T20:51:33.677Z,5.97
2023-03-03T20:54:39.471Z,5.94
2023-03-03T20:57:34.532Z,5.88
2023-03-03T21:00:08.449Z,5.78
2023-03-03T21:02:41.949Z,5.70
2023-03-03T21:05:23.103Z,5.65
2023-03-03T21:07:58.178Z,5.61
2023-03-03T21:10:31.078Z,5.58
2023-03-03T21:13:00.209Z,5.54
2023-03-03T21:15:30.430Z,5.52
2023-03-03T21:17:59.346Z,5.46
2023-03-03T21:20:32.312Z,5.46
2023-03-03T21:23:01.162Z,5.40
2023-03-03T21:25:42.027Z,5.34
2023-03-03T21:28:23.543Z,5.23
2023-03-03T21:31:09.853Z,5.04
2023-03-03T21:33:43.908Z,4.92
2023-03-03T21:36:13.796Z,4.84
2023-03-03T21:38:42.152Z,4.71
2023-03-03T21:41:10.185Z,4.67
2023-03-03T21:43:48.741Z,4.58
2023-03-03T21:46:24.203Z,4.48
2023-03-03T21:48:52.412Z,4.35
2023-03-03T21:51:21.837Z,4.26
2023-03-03T21:53:49.853Z,4.19
2023-03-03T21:56:17.740Z,4.09
2023-03-03T21:58:45.430Z,3.98
2023-03-03T22:01:13.903Z,3.78
2023-03-03T22:03:44.521Z,3.77
2023-03-03T22:06:12.623Z,3.63
2023-03-03T22:08:40.702Z,3.47
2023-03-03T22:11:08.436Z,3.41
2023-03-03T22:13:36.722Z,3.29
2023-03-03T22:16:04.831Z,3.20
2023-03-03T22:18:32.911Z,3.10
2023-03-03T22:21:00.670Z,3.00
2023-03-03T22:23:28.569Z,2.92
2023-03-03T22:25:56.368Z,2.85
2023-03-03T22:28:24.848Z,2.79
2023-03-03T22:30:52.726Z,2.72
2023-03-03T22:33:20.890Z,2.63
2023-03-03T22:35:49.033Z,2.56
2023-03-03T22:38:17.265Z,2.52
2023-03-03T22:40:45.225Z,2.43
2023-03-03T22:43:14.987Z,2.37
2023-03-03T22:45:43.130Z,2.30
2023-03-03T22:48:11.984Z,2.21
2023-03-03T22:50:41.063Z,2.14
2023-03-03T22:53:08.961Z,2.07
2023-03-03T22:55:37.773Z,1.92
2023-03-03T22:58:07.489Z,1.88
2023-03-03T23:00:40.606Z,1.84
2023-03-03T23:03:10.098Z,1.70
2023-03-03T23:05:41.212Z,1.64
2023-03-03T23:08:11.967Z,1.54
2023-03-03T23:10:40.480Z,1.46
2023-03-03T23:13:09.797Z,1.41
2023-03-03T23:15:38.035Z,1.36
2023-03-03T23:18:06.279Z,1.30
2023-03-03T23:20:34.675Z,1.25
2023-03-03T23:23:03.139Z,1.27
2023-03-03T23:25:31.301Z,1.12
2023-03-03T23:28:00.118Z,1.10
2023-03-03T23:30:28.283Z,1.05
2023-03-03T23:32:56.657Z,1.02
2023-03-03T23:35:25.057Z,0.97
2023-03-03T23:37:53.594Z,0.93
2023-03-03T23:40:21.902Z,0.87
2023-03-03T23:42:50.532Z,0.83
2023-03-03T23:45:18.703Z,0.80
2023-03-03T23:47:51.445Z,0.74
2023-03-03T23:50:20.145Z,0.75
2023-03-03T23:52:48.515Z,0.64
2023-03-03T23:55:16.904Z,0.58
2023-03-03T23:57:44.915Z,0.51
